sensor_id;sensor_type;location;lat;lon;timestamp;temperature;humidity
9640;DHT22;51745;50.872;4.732;2022-10-31T00:00:25;13.20;99.90
9640;DHT22;51745;50.872;4.732;2022-10-31T00:03:14;13.10;99.90
9640;DHT22;51745;50.872;4.732;2022-10-31T00:06:02;13.10;99.90
9640;DHT22;51745;50.872;4.732;2022-10-31T00:08:51;13.10;99.90
9640;DHT22;51745;50.872;4.732;2022-10-31T00:11:42;13.10;99.90
9640;DHT22;51745;50.872;4.732;2022-10-31T00:14:31;13.00;99.90
9640;DHT22;51745;50.872;4.732;2022-10-31T00:17:18;13.10;99.90
9640;DHT22;51745;50.872;4.732;2022-10-31T00:20:08;13.00;99.90
9640;DHT22;51745;50.872;4.732;2022-10-31T00:22:57;13.10;99.90
9640;DHT22;51745;50.872;4.732;2022-10-31T00:25:45;13.00;99.90
9640;DHT22;51745;50.872;4.732;2022-10-31T00:28:41;13.00;99.90
9640;DHT22;51745;50.872;4.732;2022-10-31T00:31:32;13.00;99.90
9640;DHT22;51745;50.872;4.732;2022-10-31T00:34:26;12.90;99.90
9640;DHT22;51745;50.872;4.732;2022-10-31T00:37:16;13.00;99.90
9640;DHT22;51745;50.872;4.732;2022-10-31T00:40:05;13.00;99.90
9640;DHT22;51745;50.872;4.732;2022-10-31T00:42:56;13.00;99.90
9640;DHT22;51745;50.872;4.732;2022-10-31T00:45:43;12.90;99.90
9640;DHT22;51745;50.872;4.732;2022-10-31T00:48:31;13.00;99.90
9640;DHT22;51745;50.872;4.732;2022-10-31T00:51:22;12.90;99.90
9640;DHT22;51745;50.872;4.732;2022-10-31T00:54:11;12.80;99.90
9640;DHT22;51745;50.872;4.732;2022-10-31T00:56:59;13.30;99.90
9640;DHT22;51745;50.872;4.732;2022-10-31T00:59:47;12.80;99.90
9640;DHT22;51745;50.872;4.732;2022-10-31T01:02:35;13.40;99.90
9640;DHT22;51745;50.872;4.732;2022-10-31T01:05:23;12.80;99.90
9640;DHT22;51745;50.872;4.732;2022-10-31T01:08:12;12.80;99.90
9640;DHT22;51745;50.872;4.732;2022-10-31T01:11:05;12.80;99.90
9640;DHT22;51745;50.872;4.732;2022-10-31T01:13:54;12.80;99.90
9640;DHT22;51745;50.872;4.732;2022-10-31T01:16:42;12.70;99.90
9640;DHT22;51745;50.872;4.732;2022-10-31T01:19:29;12.70;99.90
9640;DHT22;51745;50.872;4.732;2022-10-31T01:22:17;11.60;99.90
9640;DHT22;51745;50.872;4.732;2022-10-31T01:25:06;12.70;99.90
9640;DHT22;51745;50.872;4.732;2022-10-31T01:27:55;12.60;99.90
9640;DHT22;51745;50.872;4.732;2022-10-31T01:30:43;12.60;99.90
9640;DHT22;51745;50.872;4.732;2022-10-31T01:33:34;12.60;99.90
9640;DHT22;51745;50.872;4.732;2022-10-31T01:36:23;12.60;99.90
9640;DHT22;51745;50.872;4.732;2022-10-31T01:39:11;12.60;99.90
9640;DHT22;51745;50.872;4.732;2022-10-31T01:41:59;12.50;99.90
9640;DHT22;51745;50.872;4.732;2022-10-31T01:44:56;12.50;99.90
9640;DHT22;51745;50.872;4.732;2022-10-31T01:47:45;12.40;99.90
9640;DHT22;51745;50.872;4.732;2022-10-31T01:50:38;12.40;99.90
9640;DHT22;51745;50.872;4.732;2022-10-31T01:53:27;12.30;99.90
9640;DHT22;51745;50.872;4.732;2022-10-31T01:56:17;12.20;99.90
9640;DHT22;51745;50.872;4.732;2022-10-31T01:59:05;12.30;99.90
9640;DHT22;51745;50.872;4.732;2022-10-31T02:01:55;12.30;99.90
9640;DHT22;51745;50.872;4.732;2022-10-31T02:04:42;12.30;99.90
9640;DHT22;51745;50.872;4.732;2022-10-31T02:07:32;12.20;99.90
9640;DHT22;51745;50.872;4.732;2022-10-31T02:10:20;12.20;99.90
9640;DHT22;51745;50.872;4.732;2022-10-31T02:13:09;12.20;99.90
9640;DHT22;51745;50.872;4.732;2022-10-31T02:16:04;12.20;99.90
9640;DHT22;51745;50.872;4.732;2022-10-31T02:18:53;13.80;99.90
9640;DHT22;51745;50.872;4.732;2022-10-31T02:21:42;12.20;99.90
9640;DHT22;51745;50.872;4.732;2022-10-31T02:24:44;12.20;99.90
9640;DHT22;51745;50.872;4.732;2022-10-31T02:27:42;12.20;99.90
9640;DHT22;51745;50.872;4.732;2022-10-31T02:30:36;13.30;99.90
9640;DHT22;51745;50.872;4.732;2022-10-31T02:33:31;12.10;99.90
9640;DHT22;51745;50.872;4.732;2022-10-31T02:36:23;12.00;99.90
9640;DHT22;51745;50.872;4.732;2022-10-31T02:39:14;12.10;99.90
9640;DHT22;51745;50.872;4.732;2022-10-31T02:42:03;12.00;99.90
9640;DHT22;51745;50.872;4.732;2022-10-31T02:44:54;12.00;99.90
9640;DHT22;51745;50.872;4.732;2022-10-31T02:47:42;12.00;99.90
9640;DHT22;51745;50.872;4.732;2022-10-31T02:50:34;12.00;99.90
9640;DHT22;51745;50.872;4.732;2022-10-31T02:53:22;12.00;99.90
9640;DHT22;51745;50.872;4.732;2022-10-31T02:56:11;12.00;99.90
9640;DHT22;51745;50.872;4.732;2022-10-31T02:59:00;12.00;99.90
9640;DHT22;51745;50.872;4.732;2022-10-31T03:08:01;12.00;99.90
9640;DHT22;51745;50.872;4.732;2022-10-31T03:10:52;12.00;99.90
9640;DHT22;51745;50.872;4.732;2022-10-31T03:13:45;12.00;99.90
9640;DHT22;51745;50.872;4.732;2022-10-31T03:16:39;11.90;99.90
9640;DHT22;51745;50.872;4.732;2022-10-31T03:19:29;12.00;99.90
9640;DHT22;51745;50.872;4.732;2022-10-31T03:22:17;11.90;99.90
9640;DHT22;51745;50.872;4.732;2022-10-31T03:25:08;11.90;99.90
9640;DHT22;51745;50.872;4.732;2022-10-31T03:27:56;11.90;99.90
9640;DHT22;51745;50.872;4.732;2022-10-31T03:30:46;11.90;99.90
9640;DHT22;51745;50.872;4.732;2022-10-31T03:33:36;11.90;99.90
9640;DHT22;51745;50.872;4.732;2022-10-31T03:36:26;11.90;99.90
9640;DHT22;51745;50.872;4.732;2022-10-31T03:39:14;11.90;99.90
9640;DHT22;51745;50.872;4.732;2022-10-31T03:42:05;11.90;99.90
9640;DHT22;51745;50.872;4.732;2022-10-31T03:44:55;11.90;99.90
9640;DHT22;51745;50.872;4.732;2022-10-31T03:47:45;11.90;99.90
9640;DHT22;51745;50.872;4.732;2022-10-31T03:50:35;12.00;99.90
9640;DHT22;51745;50.872;4.732;2022-10-31T03:53:24;11.80;99.90
9640;DHT22;51745;50.872;4.732;2022-10-31T03:56:26;11.90;99.90
9640;DHT22;51745;50.872;4.732;2022-10-31T03:59:17;11.90;99.90
9640;DHT22;51745;50.872;4.732;2022-10-31T04:02:10;12.00;99.90
9640;DHT22;51745;50.872;4.732;2022-10-31T04:05:00;11.90;99.90
9640;DHT22;51745;50.872;4.732;2022-10-31T04:07:50;11.90;99.90
9640;DHT22;51745;50.872;4.732;2022-10-31T04:10:38;11.90;99.90
9640;DHT22;51745;50.872;4.732;2022-10-31T04:13:30;11.90;99.90
9640;DHT22;51745;50.872;4.732;2022-10-31T04:16:28;11.80;99.90
9640;DHT22;51745;50.872;4.732;2022-10-31T04:19:16;11.80;99.90
9640;DHT22;51745;50.872;4.732;2022-10-31T04:22:04;11.80;99.90
9640;DHT22;51745;50.872;4.732;2022-10-31T04:24:53;12.60;99.90
9640;DHT22;51745;50.872;4.732;2022-10-31T04:27:41;11.80;99.90
9640;DHT22;51745;50.872;4.732;2022-10-31T04:30:28;11.70;99.90
9640;DHT22;51745;50.872;4.732;2022-10-31T04:33:18;11.80;99.90
9640;DHT22;51745;50.872;4.732;2022-10-31T04:36:06;11.70;99.90
9640;DHT22;51745;50.872;4.732;2022-10-31T04:38:54;11.80;99.90
9640;DHT22;51745;50.872;4.732;2022-10-31T04:41:52;11.80;99.90
9640;DHT22;51745;50.872;4.732;2022-10-31T04:44:41;11.80;99.90
9640;DHT22;51745;50.872;4.732;2022-10-31T04:47:30;11.80;99.90
9640;DHT22;51745;50.872;4.732;2022-10-31T04:50:20;11.80;99.90
9640;DHT22;51745;50.872;4.732;2022-10-31T04:53:08;11.80;99.90
9640;DHT22;51745;50.872;4.732;2022-10-31T04:56:14;11.90;99.90
9640;DHT22;51745;50.872;4.732;2022-10-31T04:59:04;11.80;99.90
9640;DHT22;51745;50.872;4.732;2022-10-31T05:02:18;11.80;99.90
9640;DHT22;51745;50.872;4.732;2022-10-31T05:05:12;11.80;99.90
9640;DHT22;51745;50.872;4.732;2022-10-31T05:08:03;11.80;99.90
9640;DHT22;51745;50.872;4.732;2022-10-31T05:10:52;11.80;99.90
9640;DHT22;51745;50.872;4.732;2022-10-31T05:13:39;11.70;99.90
9640;DHT22;51745;50.872;4.732;2022-10-31T05:16:30;11.80;99.90
9640;DHT22;51745;50.872;4.732;2022-10-31T05:19:36;11.80;99.90
9640;DHT22;51745;50.872;4.732;2022-10-31T05:22:47;11.70;99.90
9640;DHT22;51745;50.872;4.732;2022-10-31T05:25:40;11.70;99.90
9640;DHT22;51745;50.872;4.732;2022-10-31T05:28:28;11.60;99.90
9640;DHT22;51745;50.872;4.732;2022-10-31T05:31:16;11.70;99.90
9640;DHT22;51745;50.872;4.732;2022-10-31T05:34:08;11.70;99.90
9640;DHT22;51745;50.872;4.732;2022-10-31T05:37:28;11.70;99.90
9640;DHT22;51745;50.872;4.732;2022-10-31T05:40:16;11.70;99.90
9640;DHT22;51745;50.872;4.732;2022-10-31T05:43:05;11.70;99.90
9640;DHT22;51745;50.872;4.732;2022-10-31T05:45:52;11.60;99.90
9640;DHT22;51745;50.872;4.732;2022-10-31T05:49:15;11.70;99.90
9640;DHT22;51745;50.872;4.732;2022-10-31T05:52:06;11.80;99.90
9640;DHT22;51745;50.872;4.732;2022-10-31T05:55:05;11.70;99.90
9640;DHT22;51745;50.872;4.732;2022-10-31T05:57:55;11.70;99.90
9640;DHT22;51745;50.872;4.732;2022-10-31T06:00:48;11.70;99.90
9640;DHT22;51745;50.872;4.732;2022-10-31T06:03:38;11.70;99.90
9640;DHT22;51745;50.872;4.732;2022-10-31T06:06:28;11.70;99.90
9640;DHT22;51745;50.872;4.732;2022-10-31T06:09:16;11.60;99.90
9640;DHT22;51745;50.872;4.732;2022-10-31T06:12:04;11.70;99.90
9640;DHT22;51745;50.872;4.732;2022-10-31T06:15:10;11.70;99.90
9640;DHT22;51745;50.872;4.732;2022-10-31T06:18:02;11.60;99.90
9640;DHT22;51745;50.872;4.732;2022-10-31T06:21:02;11.60;99.90
9640;DHT22;51745;50.872;4.732;2022-10-31T06:23:49;11.60;99.90
9640;DHT22;51745;50.872;4.732;2022-10-31T06:27:00;11.60;99.90
9640;DHT22;51745;50.872;4.732;2022-10-31T06:29:48;11.60;99.90
9640;DHT22;51745;50.872;4.732;2022-10-31T06:32:53;11.60;99.90
9640;DHT22;51745;50.872;4.732;2022-10-31T06:35:45;11.60;99.90
9640;DHT22;51745;50.872;4.732;2022-10-31T06:38:34;11.60;99.90
9640;DHT22;51745;50.872;4.732;2022-10-31T06:41:25;11.60;99.90
9640;DHT22;51745;50.872;4.732;2022-10-31T06:44:15;11.60;99.90
9640;DHT22;51745;50.872;4.732;2022-10-31T06:47:22;11.60;99.90
9640;DHT22;51745;50.872;4.732;2022-10-31T06:50:21;11.80;99.90
9640;DHT22;51745;50.872;4.732;2022-10-31T06:53:12;11.60;99.90
9640;DHT22;51745;50.872;4.732;2022-10-31T06:56:00;11.60;99.90
9640;DHT22;51745;50.872;4.732;2022-10-31T06:58:55;11.70;99.90
9640;DHT22;51745;50.872;4.732;2022-10-31T07:02:03;11.60;99.90
9640;DHT22;51745;50.872;4.732;2022-10-31T07:04:53;11.80;99.90
9640;DHT22;51745;50.872;4.732;2022-10-31T07:07:41;11.70;99.90
9640;DHT22;51745;50.872;4.732;2022-10-31T07:10:31;11.70;99.90
9640;DHT22;51745;50.872;4.732;2022-10-31T07:13:25;11.70;99.90
9640;DHT22;51745;50.872;4.732;2022-10-31T07:16:25;11.70;99.90
9640;DHT22;51745;50.872;4.732;2022-10-31T07:19:12;11.80;99.90
9640;DHT22;51745;50.872;4.732;2022-10-31T07:22:00;11.80;99.90
9640;DHT22;51745;50.872;4.732;2022-10-31T07:24:48;11.80;99.90
9640;DHT22;51745;50.872;4.732;2022-10-31T07:27:56;11.80;99.90
9640;DHT22;51745;50.872;4.732;2022-10-31T07:30:48;11.90;99.90
9640;DHT22;51745;50.872;4.732;2022-10-31T07:33:38;11.90;99.90
9640;DHT22;51745;50.872;4.732;2022-10-31T07:37:04;11.90;99.90
9640;DHT22;51745;50.872;4.732;2022-10-31T07:39:51;11.90;99.90
9640;DHT22;51745;50.872;4.732;2022-10-31T07:42:39;12.00;99.90
9640;DHT22;51745;50.872;4.732;2022-10-31T07:45:50;12.00;99.90
9640;DHT22;51745;50.872;4.732;2022-10-31T07:48:56;11.90;99.90
9640;DHT22;51745;50.872;4.732;2022-10-31T07:52:03;12.10;99.90
9640;DHT22;51745;50.872;4.732;2022-10-31T07:55:26;12.10;99.90
9640;DHT22;51745;50.872;4.732;2022-10-31T07:58:16;12.00;99.90
9640;DHT22;51745;50.872;4.732;2022-10-31T08:01:05;12.10;99.90
9640;DHT22;51745;50.872;4.732;2022-10-31T08:04:05;12.10;99.90
9640;DHT22;51745;50.872;4.732;2022-10-31T08:07:11;12.20;99.90
9640;DHT22;51745;50.872;4.732;2022-10-31T08:10:03;12.20;99.90
9640;DHT22;51745;50.872;4.732;2022-10-31T08:12:56;12.20;99.90
9640;DHT22;51745;50.872;4.732;2022-10-31T08:15:43;12.40;99.90
9640;DHT22;51745;50.872;4.732;2022-10-31T08:18:38;12.40;99.90
9640;DHT22;51745;50.872;4.732;2022-10-31T08:21:28;12.50;99.90
9640;DHT22;51745;50.872;4.732;2022-10-31T08:24:16;12.50;99.90
9640;DHT22;51745;50.872;4.732;2022-10-31T08:27:03;12.50;99.90
9640;DHT22;51745;50.872;4.732;2022-10-31T08:29:51;12.60;99.90
9640;DHT22;51745;50.872;4.732;2022-10-31T08:32:38;12.60;99.90
9640;DHT22;51745;50.872;4.732;2022-10-31T08:35:46;12.70;99.90
9640;DHT22;51745;50.872;4.732;2022-10-31T08:39:12;12.70;99.90
9640;DHT22;51745;50.872;4.732;2022-10-31T08:41:59;12.90;99.90
9640;DHT22;51745;50.872;4.732;2022-10-31T08:44:46;12.90;99.90
9640;DHT22;51745;50.872;4.732;2022-10-31T08:47:34;13.00;99.90
9640;DHT22;51745;50.872;4.732;2022-10-31T08:50:23;13.00;99.90
9640;DHT22;51745;50.872;4.732;2022-10-31T08:53:12;13.40;99.90
9640;DHT22;51745;50.872;4.732;2022-10-31T08:56:01;13.10;99.90
9640;DHT22;51745;50.872;4.732;2022-10-31T08:58:49;13.20;99.90
9640;DHT22;51745;50.872;4.732;2022-10-31T09:01:42;13.20;99.90
9640;DHT22;51745;50.872;4.732;2022-10-31T09:04:30;13.30;99.90
9640;DHT22;51745;50.872;4.732;2022-10-31T09:07:18;13.30;99.90
9640;DHT22;51745;50.872;4.732;2022-10-31T09:10:08;13.30;99.90
9640;DHT22;51745;50.872;4.732;2022-10-31T09:13:01;13.40;99.90
9640;DHT22;51745;50.872;4.732;2022-10-31T09:16:18;13.40;99.90
9640;DHT22;51745;50.872;4.732;2022-10-31T09:19:05;13.40;99.90
9640;DHT22;51745;50.872;4.732;2022-10-31T09:21:56;13.50;99.90
9640;DHT22;51745;50.872;4.732;2022-10-31T09:24:45;13.50;99.90
9640;DHT22;51745;50.872;4.732;2022-10-31T09:27:33;13.60;99.90
9640;DHT22;51745;50.872;4.732;2022-10-31T09:30:21;13.70;99.90
9640;DHT22;51745;50.872;4.732;2022-10-31T09:33:09;13.60;99.90
9640;DHT22;51745;50.872;4.732;2022-10-31T09:36:04;13.80;99.90
9640;DHT22;51745;50.872;4.732;2022-10-31T09:38:51;13.90;99.90
9640;DHT22;51745;50.872;4.732;2022-10-31T09:41:54;14.00;99.90
9640;DHT22;51745;50.872;4.732;2022-10-31T09:44:50;14.10;99.90
9640;DHT22;51745;50.872;4.732;2022-10-31T09:47:59;14.10;99.90
9640;DHT22;51745;50.872;4.732;2022-10-31T09:50:51;14.20;99.90
9640;DHT22;51745;50.872;4.732;2022-10-31T09:53:49;14.20;99.90
9640;DHT22;51745;50.872;4.732;2022-10-31T09:56:39;14.20;99.90
9640;DHT22;51745;50.872;4.732;2022-10-31T09:59:30;14.30;99.90
9640;DHT22;51745;50.872;4.732;2022-10-31T10:02:21;14.40;99.90
9640;DHT22;51745;50.872;4.732;2022-10-31T10:05:10;14.50;99.90
9640;DHT22;51745;50.872;4.732;2022-10-31T10:08:05;14.70;99.90
9640;DHT22;51745;50.872;4.732;2022-10-31T10:11:18;14.70;99.90
9640;DHT22;51745;50.872;4.732;2022-10-31T10:14:22;14.80;99.90
9640;DHT22;51745;50.872;4.732;2022-10-31T10:17:16;14.80;99.90
9640;DHT22;51745;50.872;4.732;2022-10-31T10:20:20;14.80;99.90
9640;DHT22;51745;50.872;4.732;2022-10-31T10:23:21;14.90;99.90
9640;DHT22;51745;50.872;4.732;2022-10-31T10:26:13;14.90;99.90
9640;DHT22;51745;50.872;4.732;2022-10-31T10:29:08;14.90;99.90
9640;DHT22;51745;50.872;4.732;2022-10-31T10:32:01;14.90;99.90
9640;DHT22;51745;50.872;4.732;2022-10-31T10:34:55;14.90;99.90
9640;DHT22;51745;50.872;4.732;2022-10-31T10:37:48;15.00;99.90
9640;DHT22;51745;50.872;4.732;2022-10-31T10:40:37;15.00;99.90
9640;DHT22;51745;50.872;4.732;2022-10-31T10:43:26;15.00;99.90
9640;DHT22;51745;50.872;4.732;2022-10-31T10:46:18;15.10;99.90
9640;DHT22;51745;50.872;4.732;2022-10-31T10:49:24;15.10;99.90
9640;DHT22;51745;50.872;4.732;2022-10-31T10:52:20;15.30;99.90
9640;DHT22;51745;50.872;4.732;2022-10-31T10:55:36;15.50;99.90
9640;DHT22;51745;50.872;4.732;2022-10-31T10:58:29;15.60;99.90
9640;DHT22;51745;50.872;4.732;2022-10-31T11:01:17;15.70;99.90
9640;DHT22;51745;50.872;4.732;2022-10-31T11:04:07;15.80;99.90
9640;DHT22;51745;50.872;4.732;2022-10-31T11:07:02;15.80;99.90
9640;DHT22;51745;50.872;4.732;2022-10-31T11:10:02;16.00;99.90
9640;DHT22;51745;50.872;4.732;2022-10-31T11:12:59;15.90;99.90
9640;DHT22;51745;50.872;4.732;2022-10-31T11:15:51;16.00;99.90
9640;DHT22;51745;50.872;4.732;2022-10-31T11:18:41;16.00;99.90
9640;DHT22;51745;50.872;4.732;2022-10-31T11:21:29;16.10;99.90
9640;DHT22;51745;50.872;4.732;2022-10-31T11:24:19;16.10;99.90
9640;DHT22;51745;50.872;4.732;2022-10-31T11:27:13;16.20;99.90
9640;DHT22;51745;50.872;4.732;2022-10-31T11:30:06;16.30;99.90
9640;DHT22;51745;50.872;4.732;2022-10-31T11:32:57;16.10;99.90
9640;DHT22;51745;50.872;4.732;2022-10-31T11:35:49;16.20;99.90
9640;DHT22;51745;50.872;4.732;2022-10-31T11:38:43;16.30;99.90
9640;DHT22;51745;50.872;4.732;2022-10-31T11:41:31;16.40;99.90
9640;DHT22;51745;50.872;4.732;2022-10-31T11:44:21;16.50;99.90
9640;DHT22;51745;50.872;4.732;2022-10-31T11:47:15;16.60;99.90
9640;DHT22;51745;50.872;4.732;2022-10-31T11:50:09;16.70;99.90
9640;DHT22;51745;50.872;4.732;2022-10-31T11:52:59;16.80;99.90
9640;DHT22;51745;50.872;4.732;2022-10-31T11:55:59;16.90;99.90
9640;DHT22;51745;50.872;4.732;2022-10-31T11:58:55;16.90;99.90
9640;DHT22;51745;50.872;4.732;2022-10-31T12:01:46;17.00;99.90
9640;DHT22;51745;50.872;4.732;2022-10-31T12:04:39;17.00;99.90
9640;DHT22;51745;50.872;4.732;2022-10-31T12:07:29;17.00;99.90
9640;DHT22;51745;50.872;4.732;2022-10-31T12:10:18;17.30;99.90
9640;DHT22;51745;50.872;4.732;2022-10-31T12:13:13;16.80;99.90
9640;DHT22;51745;50.872;4.732;2022-10-31T12:16:07;16.90;99.90
9640;DHT22;51745;50.872;4.732;2022-10-31T12:19:03;17.00;99.90
9640;DHT22;51745;50.872;4.732;2022-10-31T12:21:58;16.90;99.90
9640;DHT22;51745;50.872;4.732;2022-10-31T12:24:54;17.10;99.90
9640;DHT22;51745;50.872;4.732;2022-10-31T12:27:55;17.10;99.90
9640;DHT22;51745;50.872;4.732;2022-10-31T12:30:52;18.70;99.90
9640;DHT22;51745;50.872;4.732;2022-10-31T12:33:46;17.30;99.90
9640;DHT22;51745;50.872;4.732;2022-10-31T12:36:43;17.30;99.90
9640;DHT22;51745;50.872;4.732;2022-10-31T12:39:42;17.20;99.90
9640;DHT22;51745;50.872;4.732;2022-10-31T12:42:38;17.30;99.90
9640;DHT22;51745;50.872;4.732;2022-10-31T12:45:45;17.30;99.90
9640;DHT22;51745;50.872;4.732;2022-10-31T12:48:57;17.30;99.90
9640;DHT22;51745;50.872;4.732;2022-10-31T12:51:54;17.40;99.90
9640;DHT22;51745;50.872;4.732;2022-10-31T12:54:51;17.50;99.90
9640;DHT22;51745;50.872;4.732;2022-10-31T12:57:44;17.50;99.90
9640;DHT22;51745;50.872;4.732;2022-10-31T13:00:32;17.80;99.90
9640;DHT22;51745;50.872;4.732;2022-10-31T13:03:25;17.70;99.90
9640;DHT22;51745;50.872;4.732;2022-10-31T13:06:14;17.70;99.90
9640;DHT22;51745;50.872;4.732;2022-10-31T13:09:07;18.10;99.90
9640;DHT22;51745;50.872;4.732;2022-10-31T13:12:01;17.90;99.90
9640;DHT22;51745;50.872;4.732;2022-10-31T13:14:52;18.00;99.90
9640;DHT22;51745;50.872;4.732;2022-10-31T13:17:42;18.00;99.90
9640;DHT22;51745;50.872;4.732;2022-10-31T13:20:32;18.10;99.90
9640;DHT22;51745;50.872;4.732;2022-10-31T13:23:22;18.10;99.90
9640;DHT22;51745;50.872;4.732;2022-10-31T13:26:35;18.40;99.90
9640;DHT22;51745;50.872;4.732;2022-10-31T13:29:26;18.30;99.90
9640;DHT22;51745;50.872;4.732;2022-10-31T13:32:18;18.20;99.90
9640;DHT22;51745;50.872;4.732;2022-10-31T13:35:07;18.30;99.90
9640;DHT22;51745;50.872;4.732;2022-10-31T13:41:01;18.50;99.90
9640;DHT22;51745;50.872;4.732;2022-10-31T13:43:59;18.50;99.90
9640;DHT22;51745;50.872;4.732;2022-10-31T13:46:51;19.30;99.90
9640;DHT22;51745;50.872;4.732;2022-10-31T13:49:39;18.80;99.90
9640;DHT22;51745;50.872;4.732;2022-10-31T13:52:27;19.10;99.90
9640;DHT22;51745;50.872;4.732;2022-10-31T13:55:35;19.00;99.90
9640;DHT22;51745;50.872;4.732;2022-10-31T13:58:27;18.80;99.90
9640;DHT22;51745;50.872;4.732;2022-10-31T14:01:16;18.80;99.90
9640;DHT22;51745;50.872;4.732;2022-10-31T14:04:13;18.90;99.90
9640;DHT22;51745;50.872;4.732;2022-10-31T14:07:12;19.10;99.90
9640;DHT22;51745;50.872;4.732;2022-10-31T14:10:01;19.20;99.90
9640;DHT22;51745;50.872;4.732;2022-10-31T14:12:50;19.20;99.90
9640;DHT22;51745;50.872;4.732;2022-10-31T14:15:39;19.00;99.90
9640;DHT22;51745;50.872;4.732;2022-10-31T14:18:29;18.90;99.90
9640;DHT22;51745;50.872;4.732;2022-10-31T14:21:27;18.70;99.90
9640;DHT22;51745;50.872;4.732;2022-10-31T14:24:28;18.60;99.90
9640;DHT22;51745;50.872;4.732;2022-10-31T14:27:32;18.60;99.90
9640;DHT22;51745;50.872;4.732;2022-10-31T14:30:21;18.70;99.90
9640;DHT22;51745;50.872;4.732;2022-10-31T14:33:12;18.60;99.90
9640;DHT22;51745;50.872;4.732;2022-10-31T14:36:03;18.50;99.90
9640;DHT22;51745;50.872;4.732;2022-10-31T14:38:54;18.40;99.90
9640;DHT22;51745;50.872;4.732;2022-10-31T14:41:52;18.40;99.90
9640;DHT22;51745;50.872;4.732;2022-10-31T14:48:00;18.00;99.90
9640;DHT22;51745;50.872;4.732;2022-10-31T14:50:54;17.90;99.90
9640;DHT22;51745;50.872;4.732;2022-10-31T14:53:44;17.80;99.90
9640;DHT22;51745;50.872;4.732;2022-10-31T14:56:35;17.60;99.90
9640;DHT22;51745;50.872;4.732;2022-10-31T14:59:24;17.60;99.90
9640;DHT22;51745;50.872;4.732;2022-10-31T15:02:14;17.50;99.90
9640;DHT22;51745;50.872;4.732;2022-10-31T15:05:07;17.50;99.90
9640;DHT22;51745;50.872;4.732;2022-10-31T15:07:55;17.50;99.90
9640;DHT22;51745;50.872;4.732;2022-10-31T15:10:44;17.40;99.90
9640;DHT22;51745;50.872;4.732;2022-10-31T15:13:34;17.30;99.90
9640;DHT22;51745;50.872;4.732;2022-10-31T15:16:22;17.40;99.90
9640;DHT22;51745;50.872;4.732;2022-10-31T15:19:12;17.10;99.90
9640;DHT22;51745;50.872;4.732;2022-10-31T15:22:02;17.10;99.90
9640;DHT22;51745;50.872;4.732;2022-10-31T15:24:50;17.00;99.90
9640;DHT22;51745;50.872;4.732;2022-10-31T15:27:42;16.90;99.90
9640;DHT22;51745;50.872;4.732;2022-10-31T15:30:32;16.80;99.90
9640;DHT22;51745;50.872;4.732;2022-10-31T15:33:20;16.60;99.90
9640;DHT22;51745;50.872;4.732;2022-10-31T15:36:16;16.50;99.90
9640;DHT22;51745;50.872;4.732;2022-10-31T15:39:13;16.40;99.90
9640;DHT22;51745;50.872;4.732;2022-10-31T15:42:02;16.40;99.90
9640;DHT22;51745;50.872;4.732;2022-10-31T15:44:52;16.20;99.90
9640;DHT22;51745;50.872;4.732;2022-10-31T15:47:46;16.10;99.90
9640;DHT22;51745;50.872;4.732;2022-10-31T15:50:37;16.00;99.90
9640;DHT22;51745;50.872;4.732;2022-10-31T15:53:27;15.90;99.90
9640;DHT22;51745;50.872;4.732;2022-10-31T15:56:18;15.80;99.90
9640;DHT22;51745;50.872;4.732;2022-10-31T15:59:11;15.60;99.90
9640;DHT22;51745;50.872;4.732;2022-10-31T16:02:03;15.60;99.90
9640;DHT22;51745;50.872;4.732;2022-10-31T16:04:57;15.50;99.90
9640;DHT22;51745;50.872;4.732;2022-10-31T16:07:48;15.40;99.90
9640;DHT22;51745;50.872;4.732;2022-10-31T16:10:36;15.40;99.90
9640;DHT22;51745;50.872;4.732;2022-10-31T16:13:25;15.30;99.90
9640;DHT22;51745;50.872;4.732;2022-10-31T16:16:14;14.20;99.90
9640;DHT22;51745;50.872;4.732;2022-10-31T16:19:23;15.10;99.90
9640;DHT22;51745;50.872;4.732;2022-10-31T16:22:13;15.00;99.90
9640;DHT22;51745;50.872;4.732;2022-10-31T16:25:02;15.00;99.90
9640;DHT22;51745;50.872;4.732;2022-10-31T16:27:53;14.90;99.90
9640;DHT22;51745;50.872;4.732;2022-10-31T16:30:42;14.80;99.90
9640;DHT22;51745;50.872;4.732;2022-10-31T16:33:34;14.80;99.90
9640;DHT22;51745;50.872;4.732;2022-10-31T16:36:29;14.70;99.90
9640;DHT22;51745;50.872;4.732;2022-10-31T16:39:23;14.60;99.90
9640;DHT22;51745;50.872;4.732;2022-10-31T16:42:11;14.50;99.90
9640;DHT22;51745;50.872;4.732;2022-10-31T16:44:59;14.60;99.90
9640;DHT22;51745;50.872;4.732;2022-10-31T16:47:47;14.60;99.90
9640;DHT22;51745;50.872;4.732;2022-10-31T16:50:35;14.40;99.90
9640;DHT22;51745;50.872;4.732;2022-10-31T16:53:26;14.40;99.90
9640;DHT22;51745;50.872;4.732;2022-10-31T16:56:17;14.30;99.90
9640;DHT22;51745;50.872;4.732;2022-10-31T16:59:06;14.30;99.90
9640;DHT22;51745;50.872;4.732;2022-10-31T17:02:02;14.30;99.90
9640;DHT22;51745;50.872;4.732;2022-10-31T17:04:50;14.20;99.90
9640;DHT22;51745;50.872;4.732;2022-10-31T17:07:42;14.10;99.90
9640;DHT22;51745;50.872;4.732;2022-10-31T17:10:30;14.00;99.90
9640;DHT22;51745;50.872;4.732;2022-10-31T17:13:20;13.90;99.90
9640;DHT22;51745;50.872;4.732;2022-10-31T17:16:08;13.90;99.90
9640;DHT22;51745;50.872;4.732;2022-10-31T17:18:56;13.80;99.90
9640;DHT22;51745;50.872;4.732;2022-10-31T17:21:44;13.80;99.90
9640;DHT22;51745;50.872;4.732;2022-10-31T17:24:31;13.70;99.90
9640;DHT22;51745;50.872;4.732;2022-10-31T17:27:19;13.60;99.90
9640;DHT22;51745;50.872;4.732;2022-10-31T17:30:09;13.60;99.90
9640;DHT22;51745;50.872;4.732;2022-10-31T17:32:57;13.60;99.90
9640;DHT22;51745;50.872;4.732;2022-10-31T17:35:46;13.40;99.90
9640;DHT22;51745;50.872;4.732;2022-10-31T17:38:34;13.50;99.90
9640;DHT22;51745;50.872;4.732;2022-10-31T17:41:23;13.50;99.90
9640;DHT22;51745;50.872;4.732;2022-10-31T17:44:14;13.50;99.90
9640;DHT22;51745;50.872;4.732;2022-10-31T17:47:06;13.40;99.90
9640;DHT22;51745;50.872;4.732;2022-10-31T17:49:54;12.90;99.90
9640;DHT22;51745;50.872;4.732;2022-10-31T17:52:42;13.40;99.90
9640;DHT22;51745;50.872;4.732;2022-10-31T17:55:34;13.50;99.90
9640;DHT22;51745;50.872;4.732;2022-10-31T17:58:22;13.30;99.90
9640;DHT22;51745;50.872;4.732;2022-10-31T18:01:11;13.30;99.90
9640;DHT22;51745;50.872;4.732;2022-10-31T18:04:00;13.30;99.90
9640;DHT22;51745;50.872;4.732;2022-10-31T18:06:48;13.20;99.90
9640;DHT22;51745;50.872;4.732;2022-10-31T18:09:36;13.30;99.90
9640;DHT22;51745;50.872;4.732;2022-10-31T18:12:25;13.20;99.90
9640;DHT22;51745;50.872;4.732;2022-10-31T18:15:12;13.20;99.90
9640;DHT22;51745;50.872;4.732;2022-10-31T18:18:00;13.10;99.90
9640;DHT22;51745;50.872;4.732;2022-10-31T18:20:51;13.10;99.90
9640;DHT22;51745;50.872;4.732;2022-10-31T18:23:39;13.10;99.90
9640;DHT22;51745;50.872;4.732;2022-10-31T18:26:26;13.10;99.90
9640;DHT22;51745;50.872;4.732;2022-10-31T18:29:14;13.00;99.90
9640;DHT22;51745;50.872;4.732;2022-10-31T18:32:01;13.00;99.90
9640;DHT22;51745;50.872;4.732;2022-10-31T18:34:54;11.30;99.90
9640;DHT22;51745;50.872;4.732;2022-10-31T18:37:43;12.90;99.90